Time;durP1;ratioP1;P1;durP2;ratioP2;P2;SDS_P1;SDS_P2;PMS_P1;PMS_P2;Temp;Humidity;BMP_temperature;BMP_pressure;BME280_temperature;BME280_humidity;BME280_pressure;Samples;Min_cycle;Max_cycle;Signal;HPM_P1;HPM_P2
2023/08/17 00:01:47;;;;;;;9.75;7.03;;;17.10;61.90;;;;;;6222525;23;20035;-82
2023/08/17 00:04:13;;;;;;;12.73;8.38;;;17.10;62.00;;;;;;6223463;23;20015;-82
2023/08/17 00:06:38;;;;;;;10.02;6.90;;;17.00;62.30;;;;;;6222930;23;20008;-82
2023/08/17 00:09:04;;;;;;;8.23;6.38;;;17.00;61.70;;;;;;6249966;23;20000;-82
2023/08/17 00:11:30;;;;;;;11.70;7.47;;;17.10;61.50;;;;;;6250404;23;20007;-83
2023/08/17 00:13:55;;;;;;;11.15;6.90;;;17.10;62.40;;;;;;6250293;23;19998;-82
2023/08/17 00:16:21;;;;;;;10.57;7.10;;;17.00;63.30;;;;;;6223319;23;20026;-82
2023/08/17 00:18:48;;;;;;;10.45;7.63;;;16.90;62.90;;;;;;6250800;23;20428;-82
2023/08/17 00:21:13;;;;;;;11.32;7.40;;;16.90;62.70;;;;;;6222047;23;20016;-82
2023/08/17 00:23:39;;;;;;;11.25;8.73;;;16.90;61.50;;;;;;6248566;23;20387;-82
2023/08/17 00:26:04;;;;;;;12.85;8.45;;;16.80;62.10;;;;;;6249477;23;20020;-82
2023/08/17 00:28:30;;;;;;;13.07;8.55;;;16.80;61.80;;;;;;6248827;23;20046;-83
2023/08/17 00:30:55;;;;;;;10.32;6.85;;;16.80;61.40;;;;;;6250113;23;20099;-82
2023/08/17 00:33:21;;;;;;;10.50;6.72;;;16.80;60.80;;;;;;6250370;23;20004;-82
2023/08/17 00:35:47;;;;;;;13.55;8.60;;;16.70;61.50;;;;;;6248917;23;20003;-82
2023/08/17 00:38:12;;;;;;;10.60;8.68;;;16.70;61.00;;;;;;6249440;23;20004;-82
2023/08/17 00:40:38;;;;;;;12.52;7.90;;;16.70;60.40;;;;;;6250017;23;20018;-83
2023/08/17 00:43:07;;;;;;;9.23;6.95;;;16.60;60.40;;;;;;6249660;23;20004;-82
2023/08/17 00:45:32;;;;;;;11.57;7.80;;;16.60;60.20;;;;;;6250285;23;20093;-83
2023/08/17 00:47:59;;;;;;;10.25;6.70;;;16.70;61.30;;;;;;6250026;23;20004;-83
2023/08/17 00:50:26;;;;;;;9.07;6.75;;;16.60;60.90;;;;;;6248346;23;20003;-82
2023/08/17 00:52:53;;;;;;;14.27;7.25;;;16.60;61.80;;;;;;6223817;23;20000;-83
2023/08/17 00:55:19;;;;;;;11.40;6.80;;;16.60;62.40;;;;;;6222892;23;20008;-83
2023/08/17 00:57:45;;;;;;;10.65;7.47;;;16.60;62.90;;;;;;6223209;23;20469;-83
2023/08/17 01:00:13;;;;;;;11.23;7.13;;;16.50;63.60;;;;;;6248898;23;20043;-83
2023/08/17 01:02:42;;;;;;;11.52;7.70;;;16.50;62.00;;;;;;6249744;23;20075;-82
2023/08/17 01:05:08;;;;;;;11.55;7.28;;;16.50;62.90;;;;;;6250109;23;20001;-84
2023/08/17 01:07:34;;;;;;;9.50;7.00;;;16.50;62.90;;;;;;6248394;23;20011;-82
2023/08/17 01:10:01;;;;;;;10.27;7.82;;;16.50;62.40;;;;;;6247080;23;20000;-83
2023/08/17 01:12:43;;;;;;;11.60;7.97;;;16.50;62.30;;;;;;6249869;23;20075;-83
2023/08/17 01:15:24;;;;;;;11.52;7.97;;;16.50;62.60;;;;;;6222637;23;20023;-83
2023/08/17 01:18:22;;;;;;;10.52;7.57;;;16.50;63.30;;;;;;6247561;23;20362;-83
2023/08/17 01:20:49;;;;;;;10.38;8.07;;;16.50;63.00;;;;;;6221220;23;20321;-84
2023/08/17 01:23:15;;;;;;;13.05;7.13;;;16.40;62.50;;;;;;6223041;23;20277;-83
2023/08/17 01:25:40;;;;;;;13.23;7.13;;;16.40;62.20;;;;;;6222450;23;20020;-83
2023/08/17 01:28:06;;;;;;;11.32;8.43;;;16.40;61.40;;;;;;6248881;23;20051;-85
2023/08/17 01:30:57;;;;;;;10.30;7.90;;;16.30;62.30;;;;;;6222457;23;20010;-83
2023/08/17 01:33:36;;;;;;;12.25;8.25;;;16.30;60.70;;;;;;6221884;23;20004;-83
2023/08/17 01:36:12;;;;;;;11.00;7.82;;;16.30;61.70;;;;;;6248646;23;20028;-83
2023/08/17 01:38:40;;;;;;;11.18;6.70;;;16.30;61.40;;;;;;6248153;23;20087;-83
2023/08/17 01:41:12;;;;;;;11.88;8.50;;;16.30;60.70;;;;;;6250065;23;20004;-84
2023/08/17 01:43:40;;;;;;;11.05;8.07;;;16.30;59.90;;;;;;6249377;23;20007;-84
2023/08/17 01:46:07;;;;;;;10.07;6.95;;;16.30;58.80;;;;;;6223580;23;20103;-83
2023/08/17 01:48:34;;;;;;;10.07;7.63;;;16.40;59.30;;;;;;6250553;23;20027;-85
2023/08/17 01:50:59;;;;;;;9.60;7.53;;;16.30;59.20;;;;;;6221752;23;20004;-83
2023/08/17 01:53:25;;;;;;;16.05;10.15;;;16.40;59.10;;;;;;6249574;23;20079;-83
2023/08/17 01:55:50;;;;;;;12.48;8.00;;;16.30;59.90;;;;;;6249881;23;20007;-83
2023/08/17 01:58:16;;;;;;;13.40;8.05;;;16.30;60.50;;;;;;6249429;23;20004;-83
2023/08/17 02:00:42;;;;;;;15.43;9.02;;;16.30;59.50;;;;;;6249774;23;20027;-83
2023/08/17 02:03:07;;;;;;;14.25;8.32;;;16.30;59.40;;;;;;6222871;23;20030;-83
2023/08/17 02:05:33;;;;;;;10.38;7.93;;;16.30;59.50;;;;;;6248055;23;20753;-84
2023/08/17 02:07:58;;;;;;;14.95;11.07;;;16.30;58.60;;;;;;6248783;23;20008;-83
2023/08/17 02:10:24;;;;;;;13.65;9.30;;;16.30;58.80;;;;;;6249811;23;20000;-84
2023/08/17 02:12:50;;;;;;;10.48;7.30;;;16.30;58.20;;;;;;6248917;23;20011;-83
2023/08/17 02:15:16;;;;;;;10.00;7.85;;;16.30;58.20;;;;;;6249893;23;20004;-83
2023/08/17 02:17:41;;;;;;;10.15;7.65;;;16.30;58.90;;;;;;6248233;23;20090;-83
2023/08/17 02:20:08;;;;;;;12.48;8.13;;;16.30;59.80;;;;;;6222735;23;20004;-83
2023/08/17 02:22:34;;;;;;;10.18;7.70;;;16.30;60.10;;;;;;6245752;23;20385;-83
2023/08/17 02:24:59;;;;;;;9.48;7.38;;;16.30;59.60;;;;;;6221583;23;20016;-83
2023/08/17 02:27:25;;;;;;;11.35;7.78;;;16.30;60.00;;;;;;6248631;23;20012;-85
2023/08/17 02:29:50;;;;;;;10.35;7.93;;;16.30;60.80;;;;;;6222064;23;20004;-83
2023/08/17 02:32:16;;;;;;;11.75;7.82;;;16.20;60.70;;;;;;6248785;23;20065;-83
2023/08/17 02:34:42;;;;;;;13.88;8.63;;;16.20;60.50;;;;;;6249228;23;20032;-82
2023/08/17 02:37:07;;;;;;;16.75;9.23;;;16.20;60.20;;;;;;6220994;23;20369;-83
2023/08/17 02:39:33;;;;;;;11.75;8.52;;;16.20;60.70;;;;;;6248693;23;20050;-85
2023/08/17 02:41:58;;;;;;;11.07;8.02;;;16.20;59.10;;;;;;6249507;23;20050;-83
2023/08/17 02:44:24;;;;;;;11.13;7.65;;;16.20;59.10;;;;;;6249373;23;20000;-82
2023/08/17 02:46:49;;;;;;;12.00;8.85;;;16.20;59.70;;;;;;6222311;23;20008;-82
2023/08/17 02:49:15;;;;;;;10.32;7.07;;;16.20;59.30;;;;;;6248731;23;20007;-83
2023/08/17 02:51:40;;;;;;;13.13;9.00;;;16.20;59.50;;;;;;6247970;23;20258;-82
2023/08/17 02:54:07;;;;;;;11.15;8.43;;;16.20;59.60;;;;;;6249366;23;19997;-82
2023/08/17 02:56:35;;;;;;;13.15;8.20;;;16.10;59.40;;;;;;6249372;23;20015;-83
2023/08/17 02:59:03;;;;;;;10.85;7.97;;;16.10;59.50;;;;;;6222694;23;20131;-83
2023/08/17 03:01:29;;;;;;;11.82;8.63;;;16.10;59.30;;;;;;6222675;23;20014;-83
2023/08/17 03:03:55;;;;;;;12.23;8.80;;;16.10;59.20;;;;;;6248948;23;20023;-85
2023/08/17 03:06:21;;;;;;;14.15;9.98;;;16.10;59.30;;;;;;6247853;23;20004;-83
2023/08/17 03:08:46;;;;;;;10.90;7.57;;;16.00;59.90;;;;;;6222463;23;20004;-83
2023/08/17 03:11:12;;;;;;;15.40;10.57;;;16.00;58.60;;;;;;6248910;23;20067;-83
2023/08/17 03:13:37;;;;;;;11.05;7.78;;;16.10;58.80;;;;;;6222132;23;20000;-83
2023/08/17 03:16:03;;;;;;;13.70;8.15;;;16.00;58.60;;;;;;6248886;23;20000;-83
2023/08/17 03:18:29;;;;;;;12.60;8.25;;;16.00;59.00;;;;;;6248579;23;20000;-83
2023/08/17 03:20:54;;;;;;;12.32;7.55;;;15.90;58.80;;;;;;6246736;23;20080;-83
2023/08/17 03:23:20;;;;;;;13.52;8.52;;;15.90;58.50;;;;;;6249422;23;20243;-84
2023/08/17 03:25:46;;;;;;;9.73;7.70;;;15.90;59.70;;;;;;6220918;23;20047;-84
2023/08/17 03:28:12;;;;;;;10.38;7.30;;;15.90;60.00;;;;;;6247700;23;20004;-84
2023/08/17 03:30:40;;;;;;;15.13;10.48;;;15.90;60.30;;;;;;6247818;23;19997;-83
2023/08/17 03:33:06;;;;;;;11.52;7.80;;;15.80;60.70;;;;;;6248593;23;20296;-84
2023/08/17 03:35:31;;;;;;;8.98;7.63;;;15.70;60.50;;;;;;6220803;23;20000;-84
2023/08/17 03:37:57;;;;;;;11.00;7.25;;;15.70;59.60;;;;;;6248476;23;20011;-84
2023/08/17 03:40:22;;;;;;;10.52;7.53;;;15.80;59.70;;;;;;6250623;23;20083;-83
2023/08/17 03:42:48;;;;;;;11.52;7.88;;;15.70;60.30;;;;;;6250785;23;20004;-84
2023/08/17 03:45:13;;;;;;;11.23;7.88;;;15.70;60.00;;;;;;6251151;23;20004;-83
2023/08/17 03:47:39;;;;;;;13.40;8.23;;;15.80;59.70;;;;;;6225113;23;20000;-84
2023/08/17 03:50:05;;;;;;;11.45;7.50;;;15.80;59.20;;;;;;6251173;23;20296;-83
2023/08/17 03:52:30;;;;;;;11.40;7.70;;;15.80;59.20;;;;;;6248843;23;20443;-85
2023/08/17 03:54:56;;;;;;;12.15;7.60;;;15.80;58.90;;;;;;6224962;23;20004;-83
2023/08/17 03:57:21;;;;;;;10.70;7.97;;;15.80;59.50;;;;;;6251515;23;20272;-84
2023/08/17 03:59:47;;;;;;;12.18;7.28;;;15.80;59.60;;;;;;6251184;23;20039;-84
2023/08/17 04:02:13;;;;;;;10.05;7.38;;;15.80;60.20;;;;;;6224627;23;20016;-84
2023/08/17 04:04:38;;;;;;;13.48;8.00;;;15.70;60.60;;;;;;6251454;23;20007;-83
2023/08/17 04:07:04;;;;;;;9.35;6.68;;;15.70;61.40;;;;;;6249502;23;20050;-84
2023/08/17 04:09:30;;;;;;;12.25;7.57;;;15.70;61.30;;;;;;6251365;23;20338;-84
2023/08/17 04:11:57;;;;;;;14.02;7.80;;;15.70;61.60;;;;;;6251057;23;20388;-84
2023/08/17 04:14:22;;;;;;;9.07;7.03;;;15.70;62.00;;;;;;6251122;23;20004;-84
2023/08/17 04:16:48;;;;;;;11.07;8.55;;;15.70;62.40;;;;;;6250446;23;20002;-84
2023/08/17 04:19:14;;;;;;;11.27;8.43;;;15.70;62.90;;;;;;6224093;23;20000;-84
2023/08/17 04:21:39;;;;;;;12.10;7.10;;;15.70;62.80;;;;;;6221851;23;20008;-83
2023/08/17 04:24:05;;;;;;;10.68;6.72;;;15.70;62.40;;;;;;6249774;23;20020;-83
2023/08/17 04:26:31;;;;;;;11.68;6.28;;;15.70;62.70;;;;;;6222717;23;20444;-83
2023/08/17 04:28:56;;;;;;;9.20;6.97;;;15.80;62.10;;;;;;6249419;23;20053;-83
2023/08/17 04:31:23;;;;;;;14.38;8.13;;;15.80;61.20;;;;;;6249495;23;20263;-85
2023/08/17 04:33:48;;;;;;;10.63;7.47;;;15.90;60.40;;;;;;6223316;23;20000;-83
2023/08/17 04:36:14;;;;;;;12.00;7.13;;;15.90;60.20;;;;;;6249014;23;19999;-84
2023/08/17 04:38:39;;;;;;;15.15;7.35;;;16.00;60.10;;;;;;6249383;23;20003;-85
2023/08/17 04:41:05;;;;;;;12.52;8.82;;;16.10;59.40;;;;;;6248819;23;20049;-83
2023/08/17 04:43:31;;;;;;;11.05;6.82;;;16.00;60.20;;;;;;6248411;23;20000;-82
2023/08/17 04:45:56;;;;;;;9.05;7.13;;;16.10;59.50;;;;;;6248985;23;20003;-84
2023/08/17 04:48:22;;;;;;;13.07;9.38;;;16.20;60.90;;;;;;6250019;23;20305;-83
2023/08/17 04:50:48;;;;;;;10.52;7.60;;;16.10;62.50;;;;;;6247701;23;20003;-84
2023/08/17 04:53:14;;;;;;;10.98;6.03;;;16.10;60.20;;;;;;6249394;23;20042;-84
2023/08/17 04:55:39;;;;;;;13.43;7.13;;;16.20;60.20;;;;;;6250170;23;20009;-84
2023/08/17 04:58:05;;;;;;;10.70;6.95;;;16.30;61.10;;;;;;6250739;23;20000;-84
2023/08/17 05:00:30;;;;;;;10.40;6.30;;;16.40;61.00;;;;;;6248168;23;20000;-84
2023/08/17 05:02:57;;;;;;;10.20;6.45;;;16.50;60.90;;;;;;6248567;23;20004;-83
2023/08/17 05:05:23;;;;;;;11.38;6.70;;;16.60;62.00;;;;;;6246917;23;20064;-85
2023/08/17 05:07:49;;;;;;;8.27;6.38;;;16.70;63.10;;;;;;6250458;23;20011;-83
2023/08/17 05:10:14;;;;;;;8.73;6.30;;;16.80;64.20;;;;;;6222252;23;20012;-83
2023/08/17 05:12:40;;;;;;;10.30;6.72;;;16.90;64.90;;;;;;6249600;23;20046;-84
2023/08/17 05:15:06;;;;;;;8.75;6.07;;;17.00;66.40;;;;;;6249329;23;20028;-84
2023/08/17 05:17:32;;;;;;;12.05;6.18;;;17.10;65.80;;;;;;6249284;23;20008;-83
2023/08/17 05:19:57;;;;;;;8.18;5.50;;;17.20;66.00;;;;;;6248833;23;20011;-84
2023/08/17 05:22:23;;;;;;;9.48;5.85;;;17.20;67.00;;;;;;6247860;23;20032;-84
2023/08/17 05:24:49;;;;;;;9.80;5.78;;;17.30;68.10;;;;;;6248681;23;20027;-84
2023/08/17 05:27:15;;;;;;;8.90;5.65;;;17.60;69.90;;;;;;6250421;23;20004;-84
2023/08/17 05:29:40;;;;;;;9.13;5.55;;;17.70;73.40;;;;;;6249764;23;20354;-84
2023/08/17 05:32:06;;;;;;;10.95;7.72;;;17.90;75.80;;;;;;6249428;23;20065;-84
2023/08/17 05:34:31;;;;;;;11.95;7.22;;;18.00;80.40;;;;;;6248154;23;20019;-84
2023/08/17 05:36:57;;;;;;;8.85;6.68;;;18.00;79.50;;;;;;6221258;23;20012;-84
2023/08/17 05:39:23;;;;;;;9.88;7.53;;;18.00;80.70;;;;;;6248853;23;20000;-83
2023/08/17 05:41:48;;;;;;;11.20;7.50;;;18.10;81.30;;;;;;6249159;23;20028;-82
2023/08/17 05:44:15;;;;;;;15.90;11.30;;;18.20;81.60;;;;;;6249616;23;20079;-82
2023/08/17 05:46:43;;;;;;;12.52;9.68;;;18.10;83.10;;;;;;6250109;23;20027;-83
2023/08/17 05:49:09;;;;;;;14.80;10.52;;;17.90;79.80;;;;;;6249823;23;20295;-83
2023/08/17 05:51:34;;;;;;;12.27;10.20;;;18.10;78.50;;;;;;6222424;23;20031;-85
2023/08/17 05:54:00;;;;;;;11.05;9.27;;;18.20;77.60;;;;;;6250739;23;19996;-85
2023/08/17 05:56:26;;;;;;;16.05;10.32;;;18.20;76.80;;;;;;6224197;23;20000;-85
2023/08/17 05:58:51;;;;;;;14.18;10.65;;;18.30;78.30;;;;;;6249622;23;20031;-85
2023/08/17 06:01:17;;;;;;;45.70;16.25;;;18.50;79.60;;;;;;6249074;23;20050;-84
2023/08/17 06:03:46;;;;;;;25.67;12.27;;;18.60;83.30;;;;;;6249981;23;20007;-85
2023/08/17 06:06:11;;;;;;;25.02;11.80;;;18.60;82.60;;;;;;6248731;23;20350;-84
2023/08/17 06:08:37;;;;;;;11.60;9.23;;;18.80;83.70;;;;;;6250151;23;20023;-84
2023/08/17 06:11:02;;;;;;;11.68;9.07;;;18.60;83.00;;;;;;6250071;23;20231;-84
2023/08/17 06:13:28;;;;;;;29.25;10.70;;;18.80;85.90;;;;;;6250186;23;20000;-84
2023/08/17 06:15:55;;;;;;;22.65;11.30;;;18.70;85.40;;;;;;6249552;23;20079;-85
2023/08/17 06:18:21;;;;;;;25.05;13.02;;;18.80;86.70;;;;;;6249101;23;20008;-85
2023/08/17 06:20:53;;;;;;;16.67;9.80;;;18.80;86.40;;;;;;6245902;23;20383;-85
2023/08/17 06:23:19;;;;;;;16.65;10.90;;;18.80;83.00;;;;;;6249779;23;20035;-84
2023/08/17 06:25:44;;;;;;;17.23;9.48;;;19.00;85.30;;;;;;6249372;23;20281;-85
2023/08/17 06:28:10;;;;;;;23.00;11.32;;;19.30;85.50;;;;;;6249432;23;20058;-84
2023/08/17 06:30:35;;;;;;;16.73;10.13;;;19.50;92.20;;;;;;6247967;23;20003;-84
2023/08/17 06:33:01;;;;;;;9.25;7.22;;;19.60;88.40;;;;;;6249256;23;20015;-85
2023/08/17 06:35:27;;;;;;;11.20;8.38;;;19.90;91.70;;;;;;6246857;23;20026;-84
2023/08/17 06:38:14;;;;;;;11.48;8.35;;;20.30;94.20;;;;;;6249416;23;20032;-91
2023/08/17 06:40:40;;;;;;;10.82;7.95;;;20.60;95.90;;;;;;6249021;23;20028;-84
2023/08/17 06:43:05;;;;;;;10.77;8.38;;;20.90;97.90;;;;;;6249819;23;20358;-86
2023/08/17 06:45:32;;;;;;;11.13;7.57;;;20.90;98.00;;;;;;6249901;23;20421;-84
2023/08/17 06:47:58;;;;;;;10.60;7.28;;;20.90;98.00;;;;;;6248978;23;20382;-83
2023/08/17 06:50:24;;;;;;;10.40;6.90;;;20.80;98.00;;;;;;6247759;23;20004;-84
2023/08/17 06:52:50;;;;;;;10.20;6.05;;;20.70;98.00;;;;;;6247658;23;20006;-84
2023/08/17 06:55:16;;;;;;;8.75;6.57;;;20.70;98.00;;;;;;6248459;23;20075;-83
2023/08/17 06:57:42;;;;;;;7.55;5.82;;;20.70;98.00;;;;;;6248784;23;20004;-84
2023/08/17 07:00:08;;;;;;;7.82;6.03;;;20.70;97.80;;;;;;6248460;23;20008;-83
2023/08/17 07:02:34;;;;;;;7.43;5.50;;;20.70;97.60;;;;;;6249223;23;20034;-83
2023/08/17 07:05:00;;;;;;;7.85;5.65;;;20.80;98.00;;;;;;6249740;23;20008;-84
2023/08/17 07:07:26;;;;;;;10.23;6.68;;;20.80;98.00;;;;;;6247284;23;20004;-84
2023/08/17 07:09:51;;;;;;;8.30;6.18;;;20.80;98.00;;;;;;6249075;23;20007;-83
2023/08/17 07:12:17;;;;;;;8.50;5.90;;;20.60;97.50;;;;;;6246933;23;20004;-83
2023/08/17 07:14:42;;;;;;;9.93;6.15;;;20.50;97.70;;;;;;6249853;23;20005;-83
2023/08/17 07:17:08;;;;;;;8.82;5.88;;;20.10;96.40;;;;;;6250427;23;20261;-83
2023/08/17 07:19:33;;;;;;;8.88;6.50;;;20.20;95.40;;;;;;6251205;23;20254;-84
2023/08/17 07:21:59;;;;;;;10.02;7.00;;;20.30;96.50;;;;;;6248141;23;20008;-83
2023/08/17 07:24:24;;;;;;;10.88;6.65;;;20.60;97.80;;;;;;6250810;23;20020;-83
2023/08/17 07:26:50;;;;;;;10.93;7.25;;;20.90;98.00;;;;;;6249667;23;20008;-83
2023/08/17 07:29:15;;;;;;;12.52;7.47;;;21.10;98.00;;;;;;6250806;23;19996;-84
2023/08/17 07:31:41;;;;;;;11.73;7.93;;;21.00;98.00;;;;;;6249959;23;20024;-84
2023/08/17 07:34:07;;;;;;;10.77;7.85;;;20.80;98.00;;;;;;6250430;23;20004;-83
2023/08/17 07:36:33;;;;;;;9.80;7.32;;;20.70;98.00;;;;;;6248813;23;20012;-83
2023/08/17 07:38:59;;;;;;;10.85;7.50;;;20.70;97.90;;;;;;6249963;23;20073;-83
2023/08/17 07:41:26;;;;;;;8.82;6.40;;;20.70;97.80;;;;;;6246676;23;20035;-84
2023/08/17 07:43:51;;;;;;;9.07;6.18;;;20.80;97.70;;;;;;6247910;23;20008;-83
2023/08/17 07:46:17;;;;;;;9.60;6.07;;;21.00;97.80;;;;;;6250808;23;20002;-83
2023/08/17 07:48:42;;;;;;;9.98;7.75;;;21.30;98.00;;;;;;6250736;23;20003;-84
2023/08/17 07:51:08;;;;;;;10.18;6.78;;;21.60;98.00;;;;;;6248821;23;20008;-84
2023/08/17 07:53:34;;;;;;;9.73;7.07;;;22.00;98.00;;;;;;6250756;23;20004;-84
2023/08/17 07:55:59;;;;;;;10.27;6.20;;;22.60;98.00;;;;;;6250519;23;20373;-84
2023/08/17 07:58:25;;;;;;;9.95;5.68;;;23.50;98.00;;;;;;6224480;23;20261;-85
2023/08/17 08:00:50;;;;;;;9.38;6.22;;;24.40;96.60;;;;;;6250110;23;20262;-83
2023/08/17 08:03:16;;;;;;;8.35;5.30;;;25.20;94.40;;;;;;6249780;23;20010;-84
2023/08/17 08:05:41;;;;;;;9.05;5.32;;;26.00;91.80;;;;;;6248907;23;20012;-84
2023/08/17 08:08:07;;;;;;;9.38;5.68;;;26.60;90.50;;;;;;6250278;23;20004;-84
2023/08/17 08:10:33;;;;;;;7.30;5.68;;;26.70;89.90;;;;;;6250128;23;20030;-84
2023/08/17 08:12:58;;;;;;;10.20;6.95;;;26.10;90.50;;;;;;6249191;23;20026;-84
2023/08/17 08:15:24;;;;;;;8.52;6.13;;;25.50;91.60;;;;;;6249735;23;20382;-84
2023/08/17 08:17:49;;;;;;;8.80;6.10;;;25.20;93.30;;;;;;6249813;23;20000;-84
2023/08/17 08:20:15;;;;;;;8.18;5.28;;;25.20;93.80;;;;;;6249363;23;20423;-83
2023/08/17 08:22:41;;;;;;;8.75;5.72;;;25.30;94.00;;;;;;6223106;23;20008;-82
2023/08/17 08:25:10;;;;;;;7.68;5.28;;;26.00;91.80;;;;;;6223525;23;20020;-84
2023/08/17 08:27:35;;;;;;;8.95;6.30;;;26.80;90.20;;;;;;6250654;23;20007;-84
2023/08/17 08:30:01;;;;;;;8.82;5.40;;;26.70;88.70;;;;;;6250773;23;19996;-84
2023/08/17 08:32:26;;;;;;;7.70;5.90;;;26.70;89.70;;;;;;6250552;23;20004;-83
2023/08/17 08:34:52;;;;;;;6.90;5.20;;;26.70;88.80;;;;;;6250651;23;20008;-81
2023/08/17 08:37:17;;;;;;;8.05;5.50;;;26.70;89.20;;;;;;6248966;23;20000;-82
2023/08/17 08:39:50;;;;;;;7.72;5.28;;;27.10;88.20;;;;;;6250712;23;20011;-82
2023/08/17 08:42:17;;;;;;;7.90;4.95;;;27.70;87.10;;;;;;6250414;23;20000;-81
2023/08/17 08:44:43;;;;;;;7.43;5.22;;;27.80;86.20;;;;;;6249843;23;20266;-83
2023/08/17 08:47:09;;;;;;;8.15;5.60;;;27.80;86.20;;;;;;6248840;23;20004;-81
2023/08/17 08:49:38;;;;;;;13.23;5.80;;;27.20;87.90;;;;;;6249437;23;20000;-82
2023/08/17 08:52:07;;;;;;;9.75;6.20;;;27.20;87.70;;;;;;6222142;23;20014;-82
2023/08/17 08:54:35;;;;;;;6.93;6.15;;;26.90;88.60;;;;;;6249744;23;20027;-83
2023/08/17 08:57:10;;;;;;;7.97;6.00;;;26.90;88.40;;;;;;6247488;23;20070;-83
2023/08/17 08:59:36;;;;;;;7.47;5.63;;;26.80;88.80;;;;;;6249549;23;20007;-83
2023/08/17 09:02:03;;;;;;;8.73;5.50;;;26.80;89.40;;;;;;6249068;23;20122;-83
2023/08/17 09:04:29;;;;;;;8.80;5.75;;;27.10;88.60;;;;;;6249374;23;20011;-83
2023/08/17 09:06:56;;;;;;;8.20;5.32;;;27.40;88.20;;;;;;6245481;23;20004;-82
2023/08/17 09:09:25;;;;;;;7.75;5.90;;;27.40;87.40;;;;;;6248850;23;20002;-82
2023/08/17 09:11:51;;;;;;;12.18;5.63;;;27.20;87.80;;;;;;6250021;23;20261;-82
2023/08/17 09:14:16;;;;;;;6.70;5.40;;;27.20;87.50;;;;;;6249334;23;19996;-82
2023/08/17 09:16:42;;;;;;;8.77;5.35;;;27.50;87.30;;;;;;6248467;23;20012;-82
2023/08/17 09:19:07;;;;;;;8.15;5.32;;;28.10;86.90;;;;;;6249383;23;20266;-82
2023/08/17 09:21:33;;;;;;;7.95;4.90;;;27.70;86.60;;;;;;6248067;23;20286;-82
2023/08/17 09:23:58;;;;;;;7.88;4.97;;;27.50;87.80;;;;;;6249408;23;20000;-83
2023/08/17 09:26:24;;;;;;;6.75;4.50;;;27.30;89.00;;;;;;6249320;23;20399;-81
2023/08/17 09:28:59;;;;;;;7.63;5.38;;;27.80;87.80;;;;;;6248975;23;20000;-82
2023/08/17 09:31:25;;;;;;;7.00;4.53;;;28.90;84.30;;;;;;6248240;23;20436;-82
2023/08/17 09:33:51;;;;;;;5.97;4.55;;;29.70;81.80;;;;;;6222868;23;20000;-82
2023/08/17 09:36:23;;;;;;;8.60;4.43;;;30.20;80.60;;;;;;6247634;23;20004;-82
2023/08/17 09:38:50;;;;;;;6.57;3.83;;;30.10;80.90;;;;;;6248647;23;20000;-82
2023/08/17 09:41:17;;;;;;;8.20;4.20;;;30.30;80.90;;;;;;6222017;23;20008;-83
2023/08/17 09:43:42;;;;;;;7.32;4.80;;;30.90;79.60;;;;;;6249950;23;20294;-82
2023/08/17 09:46:09;;;;;;;6.88;4.60;;;31.00;78.20;;;;;;6247995;23;20000;-82
2023/08/17 09:48:35;;;;;;;7.10;4.90;;;30.30;80.10;;;;;;6220970;23;20016;-82
2023/08/17 09:51:02;;;;;;;7.32;4.97;;;29.80;81.50;;;;;;6248119;23;19996;-82
2023/08/17 09:53:27;;;;;;;6.65;4.47;;;29.40;82.60;;;;;;6223887;23;20000;-82
2023/08/17 09:55:53;;;;;;;7.53;4.60;;;29.40;83.20;;;;;;6250241;23;20003;-82
2023/08/17 09:58:19;;;;;;;8.50;3.83;;;29.70;82.20;;;;;;6249774;23;20004;-82
2023/08/17 10:00:50;;;;;;;6.20;3.70;;;30.90;81.80;;;;;;6249215;23;20329;-82
2023/08/17 10:03:17;;;;;;;6.70;4.32;;;32.10;79.50;;;;;;6249836;23;20015;-82
2023/08/17 10:05:44;;;;;;;5.85;4.32;;;32.50;77.10;;;;;;6222114;23;20008;-82
2023/08/17 10:08:12;;;;;;;6.63;3.90;;;32.50;77.30;;;;;;6249841;23;20004;-82
2023/08/17 10:10:46;;;;;;;9.35;4.40;;;32.30;76.90;;;;;;6249690;23;20028;-82
2023/08/17 10:13:22;;;;;;;6.35;4.07;;;31.90;77.90;;;;;;6247407;23;20028;-82
2023/08/17 10:16:10;;;;;;;8.10;4.53;;;32.10;77.30;;;;;;6249282;23;20043;-82
2023/08/17 10:18:50;;;;;;;9.45;4.53;;;31.20;79.00;;;;;;6222588;23;20324;-82
2023/08/17 10:21:27;;;;;;;6.97;4.35;;;31.30;80.20;;;;;;6248231;23;20392;-82
2023/08/17 10:23:54;;;;;;;6.78;4.00;;;32.40;77.30;;;;;;6248166;23;20004;-82
2023/08/17 10:26:21;;;;;;;6.82;4.25;;;32.70;76.60;;;;;;6249770;23;20016;-82
2023/08/17 10:28:47;;;;;;;6.40;4.00;;;32.60;76.50;;;;;;6249526;23;20026;-81
2023/08/17 10:31:14;;;;;;;7.65;4.30;;;32.10;78.50;;;;;;6249755;23;20000;-82
2023/08/17 10:33:43;;;;;;;6.35;4.38;;;32.00;78.10;;;;;;6246718;23;20243;-81
2023/08/17 10:36:09;;;;;;;7.80;4.40;;;31.60;78.50;;;;;;6247189;22;20389;-81
2023/08/17 10:38:35;;;;;;;7.65;4.70;;;31.30;79.80;;;;;;6248785;23;20027;-81
2023/08/17 10:41:12;;;;;;;8.75;4.03;;;31.50;78.50;;;;;;6248922;23;20058;-81
2023/08/17 10:43:56;;;;;;;6.57;4.25;;;32.10;78.00;;;;;;6279404;22;19996;-81
2023/08/17 10:46:32;;;;;;;7.28;4.60;;;32.50;77.70;;;;;;6278576;22;20056;-81
2023/08/17 10:49:05;;;;;;;9.73;4.63;;;31.90;77.20;;;;;;6280042;22;19996;-81
2023/08/17 10:51:31;;;;;;;11.82;4.50;;;31.90;78.50;;;;;;6252170;22;20007;-82
2023/08/17 10:54:01;;;;;;;7.50;4.30;;;31.80;78.40;;;;;;6280101;22;20253;-80
2023/08/17 10:56:28;;;;;;;7.78;4.60;;;31.70;79.10;;;;;;6280278;22;20380;-81
2023/08/17 10:58:53;;;;;;;7.13;4.85;;;31.30;78.20;;;;;;6280342;22;20052;-80
2023/08/17 11:01:36;;;;;;;8.35;4.93;;;30.80;80.20;;;;;;6252685;22;20027;-81
2023/08/17 11:04:15;;;;;;;8.13;5.03;;;30.40;81.60;;;;;;6280438;22;20026;-82
2023/08/17 11:06:45;;;;;;;7.43;5.13;;;31.10;80.00;;;;;;6278614;22;20004;-80
2023/08/17 11:09:11;;;;;;;10.52;4.65;;;31.90;78.60;;;;;;6280580;22;20004;-80
2023/08/17 11:11:37;;;;;;;7.57;5.10;;;32.50;77.90;;;;;;6280225;22;19996;-82
2023/08/17 11:14:03;;;;;;;9.10;5.10;;;32.70;75.70;;;;;;6279450;22;20003;-80
2023/08/17 11:16:28;;;;;;;7.78;5.68;;;32.50;75.20;;;;;;6280259;22;20004;-81
2023/08/17 11:18:57;;;;;;;6.57;4.72;;;31.30;77.60;;;;;;6280219;22;20000;-80
2023/08/17 11:21:23;;;;;;;7.30;4.85;;;30.60;79.80;;;;;;6278693;22;20003;-80
2023/08/17 11:23:48;;;;;;;7.03;5.30;;;30.00;81.40;;;;;;6280166;22;20380;-80
2023/08/17 11:26:18;;;;;;;9.40;5.45;;;29.20;83.60;;;;;;6280130;22;20008;-80
2023/08/17 11:28:44;;;;;;;6.75;5.00;;;28.50;85.20;;;;;;6279886;22;20010;-80
2023/08/17 11:31:12;;;;;;;7.88;4.85;;;28.60;84.80;;;;;;6280334;22;20008;-80
2023/08/17 11:33:39;;;;;;;6.90;5.00;;;28.70;86.00;;;;;;6279540;22;20004;-80
2023/08/17 11:36:07;;;;;;;9.95;5.60;;;28.80;86.00;;;;;;6278478;22;20027;-80
2023/08/17 11:38:35;;;;;;;9.27;5.00;;;28.10;86.20;;;;;;6279759;22;20335;-80
2023/08/17 11:41:02;;;;;;;6.90;4.88;;;28.10;87.20;;;;;;6279986;22;20086;-80
2023/08/17 11:43:28;;;;;;;10.60;5.28;;;27.90;88.30;;;;;;6279119;22;19999;-80
2023/08/17 11:45:58;;;;;;;7.95;5.10;;;27.80;89.10;;;;;;6253247;22;20010;-81
2023/08/17 11:48:24;;;;;;;10.82;5.22;;;27.80;89.20;;;;;;6280060;22;20026;-80
2023/08/17 11:50:50;;;;;;;8.15;4.60;;;27.90;89.10;;;;;;6278518;22;19996;-80
2023/08/17 11:53:16;;;;;;;10.27;5.68;;;27.80;89.60;;;;;;6279529;22;20004;-80
2023/08/17 11:55:41;;;;;;;7.53;4.93;;;27.80;90.10;;;;;;6279929;22;20357;-81
2023/08/17 11:58:07;;;;;;;8.10;4.90;;;27.70;90.10;;;;;;6279565;22;20010;-81
2023/08/17 12:00:39;;;;;;;7.20;5.30;;;27.50;89.80;;;;;;6254254;22;20083;-81
2023/08/17 12:03:05;;;;;;;7.32;4.78;;;27.30;90.50;;;;;;6254550;22;20050;-81
2023/08/17 12:05:32;;;;;;;7.60;5.45;;;27.20;91.30;;;;;;6280127;22;20004;-81
2023/08/17 12:07:59;;;;;;;7.55;5.22;;;27.20;91.70;;;;;;6281699;22;20023;-81
2023/08/17 12:10:28;;;;;;;9.20;5.57;;;27.20;91.80;;;;;;6280784;22;20000;-80
2023/08/17 12:12:57;;;;;;;9.13;5.95;;;27.20;91.50;;;;;;6281438;22;20019;-81
2023/08/17 12:15:23;;;;;;;7.47;5.80;;;27.00;91.60;;;;;;6279834;22;19995;-80
2023/08/17 12:17:49;;;;;;;7.20;5.80;;;26.70;92.00;;;;;;6254925;22;20062;-80
2023/08/17 12:20:19;;;;;;;7.95;5.70;;;26.60;93.00;;;;;;6252846;22;20019;-80
2023/08/17 12:22:45;;;;;;;8.77;5.30;;;26.50;93.80;;;;;;6281626;22;20057;-81
2023/08/17 12:25:11;;;;;;;7.60;5.45;;;26.50;94.00;;;;;;6281588;22;20003;-80
2023/08/17 12:27:37;;;;;;;8.63;5.75;;;26.50;94.10;;;;;;6281587;22;20007;-80
2023/08/17 12:30:02;;;;;;;9.18;5.88;;;26.30;94.10;;;;;;6281746;22;20345;-80
2023/08/17 12:32:28;;;;;;;7.53;5.57;;;26.00;94.50;;;;;;6281640;22;19999;-80
2023/08/17 12:34:54;;;;;;;7.90;5.47;;;25.90;94.90;;;;;;6281230;22;20030;-80
2023/08/17 12:37:23;;;;;;;8.77;5.30;;;26.00;95.50;;;;;;6280050;22;20020;-80
2023/08/17 12:39:51;;;;;;;7.95;5.28;;;25.90;95.90;;;;;;6281191;22;20000;-80